Stevensville, MI (49127)

5:29 PM EDT on July 26, 2016 (GMT -0400)
APRSWXNET | | Change Station

Elev 636 ft 42.04 °N, 86.50 °W | Updated 21 minutes ago

Clear
Clear
81 °F
Feels Like 83 °F
N
6
Wind Variable Wind from WNW
Gusts 0.0 mph

Today
High -- | Low -- °F
--% Chance of Precip.
Yesterday
High -- | Low -- °F
Precip. -- in
Pressure 30.01 in
Visibility 10.0 miles
Clouds Clear
Heat Index 83 °F
Dew Point 65 °F
Humidity 59%
Rainfall in
Snow Depth Not available.
6:34 AM 9:10 PM
Waning Gibbous, 51% visible
METAR KBEH 262053Z AUTO VRB06KT 10SM CLR 28/17 A3003 RMK AO2 SLP163 T02780172 58010
Pressure 30.01 in
Visibility 10.0 miles
Clouds Clear
Heat Index 83 °F
Dew Point 65 °F
Humidity 59%
Rainfall in
Snow Depth Not available.
6:34 AM 9:10 PM
Waning Gibbous, 51% visible
METAR KBEH 262053Z AUTO VRB06KT 10SM CLR 28/17 A3003 RMK AO2 SLP163 T02780172 58010

10-Day Weather Forecast

Almanac

Astronomy

Jul. 26, 2016 Rise Set
Actual Time
Civil Twilight
Nautical Twilight
Astronomical Twilight
Moon
Length of Visible Light
Length of Day
Tomorrow will be .
, % of the Moon is Illuminated

Today's Extremes

State Highs State Lows

Community

WunderPhotos

Upload Photos

1,927,702 photos uploaded!

WunderBlog® & News

Nearby

Air Quality

  Air Quality AQ Index Pollutant
Not available.

Snow Depth

Station Depth Elevation

Earthquake Activity

City Distance Mag. Time & Date
Minimum magnitude displayed is 2.5.

Coastal Water Temperatures

Place Temperature

Stations

Nearby Weather Stations

Station Location Temp. Windchill Dew Point Humidity Wind Precip. Elev Updated Type
                   

Watches & Warnings

There are currently no watches in effect.